createdAt,value
2019-03-30T00:00:00.643Z,0
2019-03-30T00:30:00.374Z,0
2019-03-30T01:00:00.410Z,0
2019-03-30T01:30:00.273Z,0
2019-03-30T02:00:00.261Z,0
2019-03-30T02:30:00.472Z,0
2019-03-30T03:00:00.621Z,0
2019-03-30T03:30:00.806Z,0
2019-03-30T04:00:00.575Z,0
2019-03-30T04:30:00.445Z,0
2019-03-30T05:00:00.415Z,0
2019-03-30T05:30:00.412Z,0
2019-03-30T06:00:00.304Z,0
2019-03-30T06:30:00.500Z,0
2019-03-30T07:00:00.377Z,0
2019-03-30T07:30:00.268Z,2
2019-03-30T08:00:00.593Z,4
2019-03-30T08:30:00.375Z,5.34
2019-03-30T09:00:00.362Z,6
2019-03-30T09:30:00.377Z,2.67
2019-03-30T10:00:00.392Z,1.33
2019-03-30T10:30:00.475Z,4
2019-03-30T11:00:00.374Z,3.33
2019-03-30T11:30:00.356Z,5.34
2019-03-30T12:00:00.370Z,2.67
2019-03-30T12:30:00.494Z,4.67
2019-03-30T13:00:00.641Z,4
2019-03-30T13:30:00.380Z,2.67
2019-03-30T14:00:00.385Z,2.67
2019-03-30T14:30:00.407Z,3.33
2019-03-30T15:00:00.490Z,5.34
2019-03-30T15:30:00.361Z,4.67
2019-03-30T16:00:00.394Z,6
2019-03-30T16:30:00.321Z,5.34
2019-03-30T17:00:00.369Z,1.33
2019-03-30T17:30:00.410Z,2.67
2019-03-30T18:00:00.382Z,0
2019-03-30T18:30:00.442Z,3.33
2019-03-30T19:00:00.331Z,0
2019-03-30T19:30:00.315Z,0
2019-03-30T20:00:00.403Z,0
2019-03-30T20:30:00.371Z,0
2019-03-30T21:00:05.943Z,0
2019-03-30T21:30:00.618Z,0
2019-03-30T22:00:09.511Z,0
2019-03-30T22:30:00.161Z,0
2019-03-30T23:00:00.296Z,0
2019-03-30T23:30:00.338Z,0
